Time;durP1;ratioP1;P1;durP2;ratioP2;P2;SDS_P1;SDS_P2;PMS_P1;PMS_P2;Temp;Humidity;BMP_temperature;BMP_pressure;BME280_temperature;BME280_humidity;BME280_pressure;Samples;Min_cycle;Max_cycle;Signal;HPM_P1;HPM_P2
2022/04/21 00:00:33;;;;;;;6.47;2.90;;;15.30;50.70;;;;;;5073167;28;20052;-75
2022/04/21 00:02:59;;;;;;;4.97;3.00;;;15.40;50.70;;;;;;5073548;28;20021;-75
2022/04/21 00:05:25;;;;;;;4.97;2.63;;;15.50;50.50;;;;;;5073101;28;20103;-75
2022/04/21 00:07:51;;;;;;;7.03;3.30;;;15.60;50.60;;;;;;5073158;28;20028;-75
2022/04/21 00:10:17;;;;;;;4.80;2.95;;;15.70;50.80;;;;;;5073132;28;20061;-75
2022/04/21 00:12:43;;;;;;;3.78;2.50;;;15.70;50.80;;;;;;5074506;28;20028;-75
2022/04/21 00:15:10;;;;;;;5.45;2.70;;;15.70;50.90;;;;;;5073037;28;20025;-75
2022/04/21 00:17:35;;;;;;;4.50;2.88;;;15.70;50.80;;;;;;5072772;28;20480;-75
2022/04/21 00:20:01;;;;;;;4.97;3.20;;;15.60;51.00;;;;;;5071719;28;20027;-75
2022/04/21 00:25:11;;;;;;;8.25;2.92;;;15.50;51.60;;;;;;5069919;28;20078;-75
2022/04/21 00:27:42;;;;;;;5.13;3.10;;;15.40;51.90;;;;;;5072373;28;20360;-75
2022/04/21 00:30:09;;;;;;;5.28;2.90;;;15.40;52.10;;;;;;5073138;28;20090;-75
2022/04/21 00:32:36;;;;;;;5.90;2.50;;;15.40;52.00;;;;;;5072312;28;20036;-75
2022/04/21 00:35:03;;;;;;;3.17;2.33;;;15.50;52.00;;;;;;5072960;28;20103;-74
2022/04/21 00:37:28;;;;;;;5.22;2.72;;;15.60;51.70;;;;;;5081301;28;20036;-73
2022/04/21 00:39:54;;;;;;;7.30;2.80;;;15.80;51.60;;;;;;5079928;28;20055;-75
2022/04/21 00:42:20;;;;;;;4.93;2.70;;;15.80;51.40;;;;;;5072628;28;20043;-75
2022/04/21 00:44:46;;;;;;;5.15;2.75;;;15.70;51.70;;;;;;5072746;28;20466;-75
2022/04/21 00:47:13;;;;;;;5.28;2.65;;;15.60;51.90;;;;;;5072408;28;20021;-75
2022/04/21 00:49:39;;;;;;;5.75;3.20;;;15.60;52.00;;;;;;5072422;28;20032;-75
2022/04/21 00:52:06;;;;;;;5.88;3.20;;;15.60;52.40;;;;;;5072497;28;20363;-75
2022/04/21 00:54:33;;;;;;;6.85;3.20;;;15.50;52.60;;;;;;5066755;28;20028;-75
2022/04/21 00:57:02;;;;;;;4.72;3.08;;;15.50;52.80;;;;;;5072170;28;20063;-75
2022/04/21 00:59:28;;;;;;;5.03;3.50;;;15.40;53.10;;;;;;5071821;28;20024;-74
2022/04/21 01:04:41;;;;;;;6.35;3.40;;;15.00;54.00;;;;;;5071659;28;20040;-74
2022/04/21 01:07:10;;;;;;;4.90;3.00;;;14.90;54.60;;;;;;5072296;28;20031;-74
2022/04/21 01:09:37;;;;;;;4.93;3.10;;;14.90;54.50;;;;;;5071904;28;20476;-74
2022/04/21 01:12:11;;;;;;;6.70;3.50;;;15.00;54.70;;;;;;5071744;28;20032;-75
2022/04/21 01:14:38;;;;;;;6.72;3.40;;;15.00;54.70;;;;;;5072245;28;20112;-75
2022/04/21 01:17:07;;;;;;;4.97;3.28;;;15.10;55.20;;;;;;5072950;28;20420;-74
2022/04/21 01:19:34;;;;;;;5.05;3.50;;;15.00;54.90;;;;;;5071954;28;20017;-75
2022/04/21 01:21:59;;;;;;;5.07;3.63;;;15.10;55.10;;;;;;5072056;28;20108;-73
2022/04/21 01:24:26;;;;;;;5.68;3.70;;;15.00;55.40;;;;;;5071754;28;20103;-73
2022/04/21 01:26:54;;;;;;;4.00;3.33;;;14.80;55.80;;;;;;5072079;28;20083;-74
2022/04/21 01:29:20;;;;;;;4.70;3.47;;;14.70;55.90;;;;;;5069432;28;20028;-74
2022/04/21 01:31:46;;;;;;;5.32;3.45;;;14.60;56.40;;;;;;5072576;28;20033;-73
2022/04/21 01:34:11;;;;;;;6.53;3.63;;;14.60;56.30;;;;;;5083312;28;20017;-73
2022/04/21 01:41:08;;;;;;;5.20;3.22;;;14.70;56.50;;;;;;5072988;28;20352;-75
2022/04/21 01:42:11;;;;;;;5.28;4.00;;;14.90;56.20;;;;;;5071523;28;20031;-75
2022/04/21 01:44:37;;;;;;;8.20;3.70;;;14.80;56.10;;;;;;5071985;28;20029;-74
2022/04/21 01:47:03;;;;;;;6.32;3.72;;;14.80;56.10;;;;;;5072115;28;20024;-74
2022/04/21 01:49:29;;;;;;;3.90;3.40;;;14.80;56.50;;;;;;5071550;28;20471;-74
2022/04/21 01:51:54;;;;;;;4.57;3.85;;;14.70;56.60;;;;;;5071633;28;20494;-74
2022/04/21 01:54:20;;;;;;;5.85;3.70;;;14.70;56.90;;;;;;5071623;28;20023;-74
2022/04/21 01:56:46;;;;;;;4.57;3.45;;;14.70;57.30;;;;;;5071768;28;20049;-74
2022/04/21 01:59:11;;;;;;;4.80;3.65;;;14.60;57.20;;;;;;5071768;28;20107;-74
2022/04/21 02:01:37;;;;;;;4.60;3.30;;;14.70;57.20;;;;;;5071190;28;20032;-74
2022/04/21 02:04:02;;;;;;;6.47;4.15;;;14.60;57.50;;;;;;5071333;28;20028;-72
2022/04/21 02:06:28;;;;;;;5.28;3.97;;;14.50;57.60;;;;;;5071626;28;20032;-74
2022/04/21 02:08:54;;;;;;;7.45;3.75;;;14.40;58.10;;;;;;5071758;28;20025;-74
2022/04/21 02:11:19;;;;;;;7.03;3.70;;;14.30;58.40;;;;;;5071186;28;20506;-74
2022/04/21 02:13:45;;;;;;;6.22;3.40;;;14.20;58.50;;;;;;5071550;28;20468;-74
2022/04/21 02:16:10;;;;;;;5.93;3.53;;;14.20;58.60;;;;;;5071791;28;20028;-74
2022/04/21 02:18:36;;;;;;;4.80;3.05;;;14.20;58.50;;;;;;5072119;28;20024;-74
2022/04/21 02:21:02;;;;;;;4.75;3.03;;;14.30;58.40;;;;;;5071128;28;20025;-74
2022/04/21 02:23:28;;;;;;;5.05;3.50;;;14.50;58.10;;;;;;5071902;28;20127;-74
2022/04/21 02:25:53;;;;;;;6.40;3.70;;;14.60;57.90;;;;;;5071487;28;20028;-74
2022/04/21 02:28:22;;;;;;;4.95;3.53;;;14.60;57.60;;;;;;5070827;28;20033;-72
2022/04/21 02:30:48;;;;;;;4.45;3.75;;;14.50;57.50;;;;;;5088901;28;20021;-74
2022/04/21 02:33:13;;;;;;;6.82;3.92;;;14.50;57.70;;;;;;5072115;28;20555;-74
2022/04/21 02:35:39;;;;;;;5.90;3.10;;;14.40;58.50;;;;;;5071204;28;20033;-74
2022/04/21 02:38:04;;;;;;;4.97;3.22;;;14.30;58.10;;;;;;5071344;28;20025;-73
2022/04/21 02:40:30;;;;;;;5.53;3.20;;;14.30;58.20;;;;;;5070381;28;20070;-74
2022/04/21 02:42:56;;;;;;;5.50;3.40;;;14.30;58.10;;;;;;5073294;28;20029;-74
2022/04/21 02:45:22;;;;;;;4.40;2.95;;;14.40;58.00;;;;;;5074922;28;20143;-74
2022/04/21 02:47:48;;;;;;;4.07;2.92;;;14.40;57.90;;;;;;5074837;28;21383;-74
2022/04/21 02:50:16;;;;;;;5.78;3.53;;;14.40;57.80;;;;;;5074669;28;20029;-74
2022/04/21 02:52:42;;;;;;;6.35;3.50;;;14.50;57.70;;;;;;5074674;28;20107;-74
2022/04/21 02:57:53;;;;;;;6.53;3.60;;;14.40;57.70;;;;;;5074374;28;20039;-74
2022/04/21 03:00:19;;;;;;;4.35;2.88;;;14.40;57.50;;;;;;5074624;28;20027;-74
2022/04/21 03:02:45;;;;;;;3.55;2.85;;;14.30;57.60;;;;;;5074210;28;20025;-74
2022/04/21 03:05:11;;;;;;;3.58;3.25;;;14.40;57.60;;;;;;5074195;28;20074;-74
2022/04/21 03:07:38;;;;;;;9.13;3.42;;;14.40;57.40;;;;;;5074354;28;20031;-74
2022/04/21 03:10:04;;;;;;;5.05;3.35;;;14.20;57.70;;;;;;5074483;28;20490;-74
2022/04/21 03:12:30;;;;;;;6.95;3.40;;;14.10;58.10;;;;;;5073883;28;20029;-74
2022/04/21 03:14:57;;;;;;;5.35;2.70;;;13.90;58.30;;;;;;5073790;28;20460;-74
2022/04/21 03:17:23;;;;;;;8.88;2.90;;;13.80;58.60;;;;;;5074296;28;20040;-74
2022/04/21 03:19:49;;;;;;;4.13;2.72;;;13.90;59.10;;;;;;5075642;28;20039;-74
2022/04/21 03:25:01;;;;;;;6.13;4.00;;;14.20;58.10;;;;;;5075323;28;20074;-72
2022/04/21 03:27:29;;;;;;;4.18;3.47;;;14.20;58.20;;;;;;5078731;28;20099;-74
2022/04/21 03:30:01;;;;;;;4.20;3.50;;;14.10;58.30;;;;;;5075619;28;20039;-74
2022/04/21 03:32:27;;;;;;;5.10;2.83;;;14.00;58.70;;;;;;5073487;28;20036;-74
2022/04/21 03:34:56;;;;;;;6.70;3.15;;;14.00;58.70;;;;;;5073779;28;20055;-74
2022/04/21 03:37:22;;;;;;;4.18;2.70;;;14.10;58.60;;;;;;5073896;28;20045;-74
2022/04/21 03:39:48;;;;;;;3.58;2.80;;;14.20;58.20;;;;;;5074062;28;20388;-74
2022/04/21 03:42:19;;;;;;;4.15;3.00;;;14.30;57.90;;;;;;5073806;28;20035;-74
2022/04/21 03:44:45;;;;;;;6.70;3.17;;;14.40;57.90;;;;;;5074062;28;20051;-74
2022/04/21 03:47:11;;;;;;;4.68;3.60;;;14.40;58.00;;;;;;5073331;28;20032;-75
2022/04/21 03:49:37;;;;;;;7.50;3.80;;;14.20;58.30;;;;;;5073624;28;20031;-74
2022/04/21 03:52:03;;;;;;;5.55;3.63;;;14.10;58.60;;;;;;5073545;28;20025;-74
2022/04/21 03:54:28;;;;;;;4.85;3.70;;;13.80;59.50;;;;;;5072875;28;20074;-74
2022/04/21 03:56:54;;;;;;;5.15;3.70;;;13.50;60.40;;;;;;5073484;28;20118;-74
2022/04/21 03:59:22;;;;;;;7.32;4.28;;;13.00;61.50;;;;;;5071556;28;20025;-74
2022/04/21 04:01:47;;;;;;;5.88;3.90;;;12.90;62.30;;;;;;5073280;28;20032;-74
2022/04/21 04:04:13;;;;;;;7.05;4.03;;;12.70;63.00;;;;;;5073220;28;20142;-74
2022/04/21 04:12:10;;;;;;;6.40;4.40;;;12.70;63.20;;;;;;5073215;28;20506;-74
2022/04/21 04:14:37;;;;;;;7.00;3.75;;;12.80;63.10;;;;;;5073065;28;20020;-75
2022/04/21 04:17:04;;;;;;;4.60;3.38;;;12.90;63.10;;;;;;5073289;28;20107;-75
2022/04/21 04:19:30;;;;;;;5.53;3.60;;;13.10;62.70;;;;;;5072643;28;20028;-73
2022/04/21 04:21:55;;;;;;;7.00;3.60;;;13.30;62.00;;;;;;5082314;28;20031;-72
2022/04/21 04:24:21;;;;;;;6.88;4.60;;;13.50;61.60;;;;;;5085843;28;20032;-75
2022/04/21 04:26:47;;;;;;;6.00;3.97;;;13.30;62.00;;;;;;5075814;28;20037;-75
2022/04/21 04:29:12;;;;;;;5.75;3.97;;;13.20;62.50;;;;;;5072661;28;20025;-74
2022/04/21 04:31:40;;;;;;;7.30;3.80;;;13.00;63.30;;;;;;5072957;28;20103;-75
2022/04/21 04:34:08;;;;;;;6.45;3.47;;;13.00;62.80;;;;;;5072931;28;20031;-74
2022/04/21 04:36:34;;;;;;;6.88;3.90;;;12.90;63.10;;;;;;5072439;28;20031;-74
2022/04/21 04:39:00;;;;;;;6.30;4.57;;;13.00;63.00;;;;;;5072255;28;20498;-74
2022/04/21 04:44:09;;;;;;;6.75;3.83;;;12.90;63.50;;;;;;5072956;28;20525;-74
2022/04/21 04:46:35;;;;;;;8.90;4.07;;;12.70;63.70;;;;;;5072733;28;20029;-74
2022/04/21 04:49:06;;;;;;;5.13;3.92;;;12.70;64.00;;;;;;5072667;28;20100;-74
2022/04/21 04:51:37;;;;;;;6.00;3.67;;;12.70;64.00;;;;;;5072334;28;20383;-74
2022/04/21 04:54:05;;;;;;;6.93;4.03;;;12.70;64.20;;;;;;5072345;28;20436;-74
2022/04/21 04:56:30;;;;;;;6.93;3.72;;;12.60;64.30;;;;;;5072155;28;20039;-74
2022/04/21 04:58:56;;;;;;;6.75;3.65;;;12.50;64.60;;;;;;5072258;28;20024;-74
2022/04/21 05:01:54;;;;;;;6.43;3.55;;;12.60;64.50;;;;;;5072167;28;20025;-74
2022/04/21 05:04:21;;;;;;;4.35;2.88;;;12.60;64.30;;;;;;5064385;28;20028;-74
2022/04/21 05:06:52;;;;;;;6.10;3.30;;;12.60;64.50;;;;;;5072301;28;20025;-74
2022/04/21 05:09:20;;;;;;;5.05;3.38;;;12.60;64.40;;;;;;5072741;28;20096;-75
2022/04/21 05:11:48;;;;;;;5.03;2.92;;;12.60;64.50;;;;;;5072210;28;20028;-75
2022/04/21 05:14:14;;;;;;;5.22;3.28;;;12.60;64.30;;;;;;5072075;28;20027;-74
2022/04/21 05:16:40;;;;;;;5.68;3.05;;;12.60;64.20;;;;;;5072385;28;20214;-74
2022/04/21 05:19:14;;;;;;;4.57;2.58;;;12.70;64.10;;;;;;5079946;28;20127;-73
2022/04/21 05:21:41;;;;;;;4.90;2.60;;;12.80;63.80;;;;;;5081996;28;20029;-75
2022/04/21 05:24:07;;;;;;;5.63;2.30;;;12.90;63.60;;;;;;5073814;28;20017;-76
2022/04/21 05:26:34;;;;;;;3.50;2.25;;;13.00;64.20;;;;;;5072308;28;20060;-77
2022/04/21 05:30:54;;;;;;;3.67;2.47;;;13.20;64.50;;;;;;5071995;28;20324;-78
2022/04/21 05:31:53;;;;;;;3.80;1.60;;;13.40;64.00;;;;;;5072079;28;20379;-78
2022/04/21 05:34:18;;;;;;;5.40;2.78;;;13.40;63.30;;;;;;5072268;28;20082;-77
2022/04/21 05:36:44;;;;;;;4.78;2.47;;;13.50;63.50;;;;;;5071633;28;20025;-77
2022/04/21 05:39:10;;;;;;;4.50;2.30;;;13.50;63.00;;;;;;5071860;28;20549;-77
2022/04/21 05:41:36;;;;;;;4.53;2.55;;;13.50;63.10;;;;;;5072183;28;20434;-77
2022/04/21 05:44:03;;;;;;;6.65;2.30;;;13.60;62.80;;;;;;5072048;28;20021;-77
2022/04/21 05:46:29;;;;;;;5.28;2.28;;;13.70;62.20;;;;;;5071555;28;20120;-77
2022/04/21 05:48:55;;;;;;;5.00;2.20;;;13.60;62.40;;;;;;5071436;28;20115;-77
2022/04/21 05:51:21;;;;;;;2.40;1.63;;;13.70;62.20;;;;;;5071737;28;20021;-76
2022/04/21 05:53:50;;;;;;;7.18;3.00;;;13.80;62.30;;;;;;5071902;28;20033;-77
2022/04/21 05:56:16;;;;;;;4.28;2.80;;;13.80;61.70;;;;;;5069528;28;20025;-79
2022/04/21 05:58:42;;;;;;;4.03;2.90;;;13.80;61.60;;;;;;5071806;28;20024;-77
2022/04/21 06:01:09;;;;;;;3.70;2.25;;;13.60;61.70;;;;;;5071258;28;20028;-75
2022/04/21 06:03:37;;;;;;;6.40;2.90;;;13.60;62.80;;;;;;5071533;28;20055;-74
2022/04/21 06:06:03;;;;;;;2.80;2.00;;;13.70;62.90;;;;;;5070188;28;20092;-74
2022/04/21 06:08:29;;;;;;;4.72;2.72;;;13.80;62.70;;;;;;5072054;28;20024;-74
2022/04/21 06:10:58;;;;;;;4.70;2.60;;;13.90;62.80;;;;;;5071610;28;20131;-75
2022/04/21 06:13:24;;;;;;;4.75;2.63;;;14.00;62.30;;;;;;5070668;28;20025;-75
2022/04/21 06:15:50;;;;;;;6.97;2.60;;;14.10;61.60;;;;;;5088039;28;20547;-77
2022/04/21 06:18:15;;;;;;;4.50;2.72;;;14.00;61.50;;;;;;5092655;28;20032;-76
2022/04/21 06:20:41;;;;;;;4.57;2.60;;;13.80;61.80;;;;;;5080319;28;20035;-76
2022/04/21 06:23:07;;;;;;;5.43;2.67;;;13.80;62.90;;;;;;5075813;28;20131;-76
2022/04/21 06:25:32;;;;;;;7.45;2.95;;;13.80;62.90;;;;;;5075971;28;20029;-76
2022/04/21 06:27:58;;;;;;;5.78;2.92;;;13.80;62.40;;;;;;5075153;28;20036;-76
2022/04/21 06:30:24;;;;;;;8.05;2.38;;;13.80;61.90;;;;;;5074767;28;20127;-76
2022/04/21 06:32:50;;;;;;;5.20;2.88;;;13.70;62.30;;;;;;5074978;28;20108;-72
2022/04/21 06:35:15;;;;;;;3.45;2.08;;;13.80;62.70;;;;;;5074520;28;20039;-76
2022/04/21 06:37:42;;;;;;;3.15;2.20;;;13.80;63.20;;;;;;5072516;28;20123;-76
2022/04/21 06:40:08;;;;;;;4.57;2.40;;;13.90;63.20;;;;;;5074661;28;20025;-74
2022/04/21 06:42:37;;;;;;;7.97;2.92;;;14.10;62.40;;;;;;5075013;28;20103;-75
2022/04/21 06:48:04;;;;;;;4.57;2.70;;;14.00;62.60;;;;;;5074885;28;20051;-73
2022/04/21 06:50:36;;;;;;;5.68;3.25;;;14.00;63.50;;;;;;5072526;28;20054;-74
2022/04/21 06:53:03;;;;;;;;;;;14.00;63.10;;;;;;5075221;28;20025;-73
2022/04/21 06:55:28;;;;;;;6.05;3.55;;;14.00;63.10;;;;;;5073757;28;19916;-74
2022/04/21 06:57:55;;;;;;;7.30;3.25;;;14.00;63.80;;;;;;5074546;28;20051;-75
2022/04/21 07:00:22;;;;;;;5.05;2.65;;;14.10;63.30;;;;;;5073864;28;20047;-74
2022/04/21 07:02:51;;;;;;;7.32;3.20;;;14.30;62.70;;;;;;5073574;28;20059;-75
2022/04/21 07:05:17;;;;;;;7.80;3.10;;;14.30;61.90;;;;;;5074708;28;20027;-75
2022/04/21 07:07:44;;;;;;;4.18;2.17;;;14.10;61.80;;;;;;5074355;28;20475;-79
2022/04/21 07:10:11;;;;;;;3.95;2.50;;;14.10;61.30;;;;;;5074677;28;20076;-77
2022/04/21 07:12:37;;;;;;;6.57;2.38;;;14.30;60.80;;;;;;5088555;28;20016;-76
2022/04/21 07:15:05;;;;;;;2.35;1.80;;;14.40;60.40;;;;;;5091169;28;20029;-74
2022/04/21 07:17:31;;;;;;;4.78;2.05;;;14.60;59.90;;;;;;5087069;28;20036;-74
2022/04/21 07:19:58;;;;;;;5.15;2.28;;;14.60;57.40;;;;;;5074273;28;20403;-77
2022/04/21 07:22:25;;;;;;;4.75;2.90;;;14.70;57.20;;;;;;5074238;28;20035;-77
2022/04/21 07:24:52;;;;;;;3.00;1.60;;;14.80;57.50;;;;;;5073253;28;20017;-77
2022/04/21 07:27:17;;;;;;;5.28;2.30;;;14.90;56.30;;;;;;5074915;28;20028;-74
2022/04/21 07:29:43;;;;;;;2.72;1.70;;;14.80;56.40;;;;;;5073588;28;20503;-75
2022/04/21 07:32:09;;;;;;;2.33;1.52;;;14.80;55.90;;;;;;5072936;28;20021;-75
2022/04/21 07:34:35;;;;;;;3.63;1.10;;;14.80;55.50;;;;;;5073543;28;20025;-75
2022/04/21 07:37:00;;;;;;;3.97;1.42;;;15.00;55.20;;;;;;5073212;28;20037;-75
2022/04/21 07:39:28;;;;;;;2.50;1.35;;;15.10;56.20;;;;;;5073768;28;20113;-76
2022/04/21 07:41:54;;;;;;;5.68;1.40;;;15.20;55.60;;;;;;5073565;28;20388;-75
2022/04/21 07:44:20;;;;;;;4.20;1.50;;;15.40;54.00;;;;;;5074908;28;20017;-75
2022/04/21 07:46:45;;;;;;;2.92;1.40;;;15.50;54.20;;;;;;5074762;28;20028;-75
2022/04/21 07:53:13;;;;;;;2.83;1.45;;;15.80;52.30;;;;;;5075441;28;20048;-75
2022/04/21 07:54:43;;;;;;;3.05;1.52;;;15.80;52.20;;;;;;5072549;28;20365;-74
2022/04/21 07:57:08;;;;;;;2.42;1.20;;;15.80;51.90;;;;;;5073137;28;20498;-75
2022/04/21 07:59:35;;;;;;;2.40;1.38;;;15.90;51.80;;;;;;5073113;28;20028;-75
2022/04/21 08:02:01;;;;;;;1.85;1.13;;;15.90;51.70;;;;;;5073439;28;20082;-75
2022/04/21 08:04:27;;;;;;;3.17;1.05;;;15.90;52.50;;;;;;5064558;28;20183;-74
2022/04/21 08:06:54;;;;;;;5.13;1.45;;;16.10;51.60;;;;;;5085259;28;20516;-75
2022/04/21 08:09:20;;;;;;;2.10;1.35;;;16.10;52.00;;;;;;5091864;28;20055;-74
2022/04/21 08:11:46;;;;;;;2.00;1.23;;;16.10;51.20;;;;;;5086600;28;20046;-74
2022/04/21 08:14:16;;;;;;;4.45;1.48;;;16.20;52.00;;;;;;5073690;28;20039;-75
2022/04/21 08:16:42;;;;;;;1.92;1.20;;;16.30;53.20;;;;;;5071152;28;20041;-75
2022/04/21 08:19:08;;;;;;;6.13;1.42;;;16.50;51.60;;;;;;5072948;28;20426;-77
2022/04/21 08:21:34;;;;;;;2.70;1.20;;;16.50;52.40;;;;;;5073389;28;20115;-77
2022/04/21 08:32:33;;;;;;;2.13;1.08;;;16.50;52.20;;;;;;5072832;28;20021;-76
2022/04/21 08:34:58;;;;;;;1.30;0.80;;;17.00;49.90;;;;;;5073024;28;20111;-76
2022/04/21 08:37:23;;;;;;;3.47;1.02;;;16.80;49.30;;;;;;5072530;28;20124;-72
2022/04/21 08:39:49;;;;;;;2.75;0.93;;;16.70;50.20;;;;;;5070724;28;20082;-72
2022/04/21 08:42:15;;;;;;;4.43;1.02;;;16.50;52.00;;;;;;5072616;28;20052;-72
2022/04/21 08:44:44;;;;;;;5.03;0.80;;;16.60;52.30;;;;;;5072647;28;20024;-72
2022/04/21 08:47:11;;;;;;;3.67;1.00;;;16.90;51.30;;;;;;5072072;28;20028;-72
2022/04/21 08:49:39;;;;;;;3.55;1.00;;;17.00;49.90;;;;;;5072548;28;20085;-72
2022/04/21 08:52:06;;;;;;;4.53;0.90;;;17.10;50.30;;;;;;5072482;28;20081;-71
2022/04/21 08:54:32;;;;;;;6.13;1.08;;;17.30;48.80;;;;;;5071862;28;20445;-72
2022/04/21 08:56:59;;;;;;;2.85;0.90;;;17.40;47.90;;;;;;5068357;28;20395;-74
2022/04/21 08:59:25;;;;;;;2.88;1.23;;;17.40;47.80;;;;;;5073058;28;20054;-77
2022/04/21 09:01:50;;;;;;;3.05;1.30;;;17.40;47.70;;;;;;5074069;28;20025;-77
2022/04/21 09:04:16;;;;;;;2.28;0.90;;;17.40;48.60;;;;;;5076585;28;20019;-76
2022/04/21 09:06:42;;;;;;;5.53;1.35;;;17.40;46.70;;;;;;5096856;28;20029;-76
2022/04/21 09:09:16;;;;;;;4.53;1.40;;;17.50;48.50;;;;;;5088007;28;20481;-76
2022/04/21 09:11:45;;;;;;;3.40;1.83;;;17.60;48.40;;;;;;5073746;28;20033;-77
2022/04/21 09:14:17;;;;;;;2.47;1.35;;;17.60;49.10;;;;;;5073646;28;20032;-79
2022/04/21 09:16:43;;;;;;;4.07;1.00;;;17.60;50.70;;;;;;5073301;28;20103;-79
2022/04/21 09:19:09;;;;;;;2.58;0.90;;;17.80;49.10;;;;;;5073554;28;20071;-77
2022/04/21 09:21:37;;;;;;;4.78;0.80;;;17.90;48.80;;;;;;5073250;28;20483;-78
2022/04/21 09:24:22;;;;;;;2.22;0.88;;;18.00;48.70;;;;;;5072192;28;20024;-79
2022/04/21 09:26:49;;;;;;;4.93;1.02;;;18.10;48.30;;;;;;5072220;28;20107;-80
2022/04/21 09:29:37;;;;;;;2.80;0.90;;;18.20;47.50;;;;;;5072146;28;20021;-79
2022/04/21 09:32:04;;;;;;;1.40;0.85;;;18.10;45.90;;;;;;5072470;28;20017;-77
2022/04/21 09:34:30;;;;;;;3.28;0.88;;;18.10;45.40;;;;;;5069261;28;20032;-77
2022/04/21 09:36:57;;;;;;;2.72;1.00;;;18.20;46.80;;;;;;5071843;28;20055;-77
2022/04/21 09:39:27;;;;;;;3.30;1.17;;;18.20;47.40;;;;;;5072037;28;20035;-77
2022/04/21 09:41:56;;;;;;;4.63;1.00;;;18.30;46.40;;;;;;5072290;28;20036;-77
2022/04/21 09:47:19;;;;;;;3.78;1.02;;;18.40;45.40;;;;;;5071683;28;20058;-75
2022/04/21 09:49:44;;;;;;;2.88;0.85;;;18.50;45.20;;;;;;5071067;28;20024;-77
2022/04/21 09:52:11;;;;;;;5.43;1.10;;;18.50;45.20;;;;;;5074538;28;20035;-78
2022/04/21 09:54:36;;;;;;;2.88;1.08;;;18.60;44.90;;;;;;5074509;28;20427;-72
2022/04/21 09:57:04;;;;;;;5.78;1.08;;;18.60;46.60;;;;;;5075319;28;20089;-73
2022/04/21 09:59:35;;;;;;;2.65;0.95;;;18.80;46.40;;;;;;5075433;28;20434;-74
2022/04/21 10:02:02;;;;;;;7.45;1.10;;;18.80;45.30;;;;;;5078699;28;20467;-73
2022/04/21 10:04:29;;;;;;;3.67;0.98;;;18.80;45.00;;;;;;5077117;28;20121;-72
2022/04/21 10:06:55;;;;;;;4.20;0.75;;;18.90;44.30;;;;;;5075030;28;20028;-71
2022/04/21 10:09:22;;;;;;;3.45;1.10;;;19.00;44.50;;;;;;5075253;28;20032;-72
2022/04/21 10:11:53;;;;;;;1.92;0.88;;;19.00;43.80;;;;;;5074316;28;20372;-72
2022/04/21 10:14:19;;;;;;;4.00;1.10;;;19.00;43.50;;;;;;5075632;28;20033;-74
2022/04/21 10:16:45;;;;;;;3.83;1.20;;;19.10;45.40;;;;;;5074272;28;20032;-76
2022/04/21 10:19:12;;;;;;;1.20;0.90;;;19.10;45.30;;;;;;5075116;28;20028;-76
2022/04/21 10:21:56;;;;;;;5.68;1.08;;;19.10;46.30;;;;;;5074721;28;20028;-75
2022/04/21 10:24:26;;;;;;;8.25;1.90;;;19.20;45.00;;;;;;5074424;28;20034;-77
2022/04/21 10:26:53;;;;;;;4.90;1.40;;;19.30;45.90;;;;;;5074743;28;20035;-75
2022/04/21 10:29:22;;;;;;;1.90;0.90;;;19.50;45.80;;;;;;5074426;28;20024;-76
2022/04/21 10:31:55;;;;;;;4.10;0.88;;;19.50;44.40;;;;;;5074567;28;20032;-73
2022/04/21 10:34:28;;;;;;;2.58;0.70;;;19.50;43.60;;;;;;5073334;28;20017;-74
2022/04/21 10:37:17;;;;;;;3.65;0.70;;;19.60;43.90;;;;;;5064868;28;20480;-74
2022/04/21 10:40:11;;;;;;;2.65;1.35;;;19.60;43.10;;;;;;5073661;28;20436;-76
2022/04/21 10:42:57;;;;;;;2.08;0.90;;;19.70;42.50;;;;;;5075268;28;20051;-76
2022/04/21 10:45:28;;;;;;;2.55;1.00;;;19.70;44.10;;;;;;5075131;28;20475;-77
2022/04/21 10:48:04;;;;;;;3.00;1.27;;;19.90;44.30;;;;;;5074218;28;20020;-76
2022/04/21 10:50:31;;;;;;;3.08;0.80;;;20.00;42.80;;;;;;5074577;28;20498;-76
2022/04/21 10:58:34;;;;;;;3.80;1.00;;;20.20;43.80;;;;;;5081960;28;20093;-75
2022/04/21 11:01:10;;;;;;;2.50;0.82;;;20.10;42.00;;;;;;5076276;28;20029;-75
2022/04/21 11:03:36;;;;;;;4.18;1.27;;;19.90;42.80;;;;;;5072955;28;20028;-75
2022/04/21 11:06:11;;;;;;;1.75;1.00;;;20.00;43.50;;;;;;5074113;28;20078;-76
2022/04/21 11:08:37;;;;;;;2.42;1.13;;;20.10;42.20;;;;;;5074436;28;20037;-76
2022/04/21 11:11:04;;;;;;;2.92;0.98;;;20.00;43.50;;;;;;5073677;28;20444;-75
2022/04/21 11:13:49;;;;;;;2.00;1.00;;;20.10;43.70;;;;;;5073614;28;20048;-76
2022/04/21 11:16:45;;;;;;;1.83;0.80;;;20.30;42.50;;;;;;5073983;28;20490;-75
2022/04/21 11:19:29;;;;;;;6.15;1.42;;;20.50;41.40;;;;;;5070986;28;20025;-76
2022/04/21 11:22:14;;;;;;;2.30;1.10;;;20.40;42.00;;;;;;5073984;28;20025;-76
2022/04/21 11:24:58;;;;;;;3.83;1.10;;;20.40;41.70;;;;;;5071543;28;20029;-76
2022/04/21 11:27:25;;;;;;;1.67;0.90;;;20.20;41.40;;;;;;5073163;28;20483;-75
2022/04/21 11:29:50;;;;;;;2.35;0.95;;;19.90;41.90;;;;;;5073971;28;20033;-76
2022/04/21 11:32:17;;;;;;;4.88;1.10;;;19.90;42.80;;;;;;5073819;28;20037;-75
2022/04/21 11:34:57;;;;;;;4.00;1.60;;;19.90;42.30;;;;;;5072451;28;20021;-75
2022/04/21 11:37:23;;;;;;;3.53;1.20;;;19.90;43.50;;;;;;5073498;28;20040;-75
2022/04/21 11:39:48;;;;;;;1.88;1.17;;;19.90;44.40;;;;;;5074189;28;20028;-75
2022/04/21 11:42:27;;;;;;;2.70;1.10;;;20.10;43.00;;;;;;5073115;28;20048;-75
2022/04/21 11:44:54;;;;;;;3.47;1.02;;;20.40;43.00;;;;;;5073136;28;20047;-76
2022/04/21 11:47:20;;;;;;;2.97;1.38;;;20.40;42.80;;;;;;5073394;28;20029;-76
2022/04/21 11:50:00;;;;;;;3.15;1.00;;;20.60;42.30;;;;;;5073451;28;20039;-75
2022/04/21 11:52:29;;;;;;;1.88;1.15;;;20.60;43.10;;;;;;5073856;28;20429;-75
2022/04/21 11:55:04;;;;;;;2.83;0.85;;;20.80;42.40;;;;;;5081279;28;20036;-73
2022/04/21 11:57:45;;;;;;;2.65;1.08;;;20.80;40.90;;;;;;5074765;28;20086;-75
2022/04/21 12:00:12;;;;;;;4.07;1.15;;;20.90;41.30;;;;;;5070128;28;20111;-75
2022/04/21 12:08:07;;;;;;;1.98;1.02;;;21.00;42.70;;;;;;5073431;28;20067;-75
2022/04/21 12:10:34;;;;;;;3.13;1.42;;;21.30;42.40;;;;;;5072431;28;20094;-75
2022/04/21 12:13:02;;;;;;;6.35;1.50;;;21.60;41.40;;;;;;5073368;28;20032;-75
2022/04/21 12:15:31;;;;;;;3.03;1.20;;;21.70;41.90;;;;;;5072614;28;20025;-77
2022/04/21 12:18:00;;;;;;;4.22;1.20;;;21.80;41.20;;;;;;5072955;28;20072;-82
2022/04/21 12:20:27;;;;;;;2.85;1.00;;;21.90;41.60;;;;;;5072742;28;20059;-76
2022/04/21 12:22:54;;;;;;;2.63;1.30;;;22.00;41.50;;;;;;5071226;28;20086;-76
2022/04/21 12:25:30;;;;;;;4.78;1.30;;;22.00;41.30;;;;;;5072726;28;20472;-76
2022/04/21 12:28:02;;;;;;;5.07;1.52;;;22.00;40.90;;;;;;5072929;28;20047;-76
2022/04/21 12:30:27;;;;;;;5.95;1.80;;;21.90;40.60;;;;;;5072471;28;20032;-75
2022/04/21 12:32:53;;;;;;;3.65;1.42;;;21.80;42.10;;;;;;5072275;28;20059;-81
2022/04/21 12:35:44;;;;;;;2.78;1.10;;;21.70;41.00;;;;;;5072575;28;20111;-80
2022/04/21 12:40:59;;;;;;;4.90;1.25;;;21.70;41.30;;;;;;5073834;28;20561;-80
2022/04/21 12:43:26;;;;;;;12.10;2.00;;;21.70;41.80;;;;;;5072969;28;20111;-81
2022/04/21 12:45:51;;;;;;;2.67;1.38;;;21.80;41.40;;;;;;5073792;28;20107;-86
2022/04/21 12:48:28;;;;;;;2.42;1.70;;;21.80;41.50;;;;;;5073541;28;20104;-81
2022/04/21 12:50:55;;;;;;;5.45;1.60;;;21.80;41.60;;;;;;5080512;28;20013;-80
2022/04/21 12:53:26;;;;;;;3.63;1.70;;;21.90;42.40;;;;;;5096622;28;20084;-81
2022/04/21 12:55:52;;;;;;;6.03;1.80;;;21.80;42.90;;;;;;5075683;28;20170;-87
2022/04/21 12:58:31;;;;;;;3.33;1.98;;;21.80;42.70;;;;;;5072133;28;20470;-88
2022/04/21 13:01:00;;;;;;;5.70;1.90;;;21.80;41.90;;;;;;5071092;28;20024;-86
2022/04/21 13:03:27;;;;;;;3.47;1.83;;;21.70;41.90;;;;;;5072268;28;20491;-80
2022/04/21 13:05:55;;;;;;;4.25;1.88;;;21.70;41.90;;;;;;5071227;28;20554;-79
2022/04/21 13:08:24;;;;;;;5.80;2.00;;;21.60;42.90;;;;;;5069226;28;20484;-79
2022/04/21 13:10:51;;;;;;;4.70;2.15;;;21.30;42.90;;;;;;5070865;28;20044;-77
2022/04/21 13:13:17;;;;;;;4.63;1.95;;;21.20;42.30;;;;;;5071091;28;20388;-78
2022/04/21 13:15:45;;;;;;;9.60;2.10;;;21.30;42.90;;;;;;5072316;28;20020;-79
2022/04/21 13:18:12;;;;;;;3.85;2.03;;;21.30;43.50;;;;;;5071912;28;20075;-81
2022/04/21 13:23:26;;;;;;;6.57;2.00;;;21.20;43.80;;;;;;5071515;28;20058;-76
2022/04/21 13:25:55;;;;;;;7.32;2.00;;;21.20;43.30;;;;;;5071752;28;20040;-75
2022/04/21 13:28:21;;;;;;;3.45;1.58;;;21.10;43.60;;;;;;5071501;28;20028;-76
2022/04/21 13:33:21;;;;;;;7.28;1.40;;;21.00;44.70;;;;;;5072388;28;20025;-80
2022/04/21 13:33:32;;;;;;;3.05;1.17;;;21.00;44.20;;;;;;5073270;28;20021;-80
2022/04/21 13:35:58;;;;;;;2.88;1.23;;;21.00;43.60;;;;;;5072442;28;20024;-76
2022/04/21 13:38:24;;;;;;;5.55;1.30;;;20.90;43.70;;;;;;5071300;28;20121;-75
2022/04/21 13:40:49;;;;;;;4.00;1.25;;;20.80;43.70;;;;;;5070389;28;20120;-76
2022/04/21 13:43:15;;;;;;;3.45;1.50;;;20.90;43.20;;;;;;5072689;28;20529;-75
2022/04/21 13:45:40;;;;;;;3.30;1.13;;;21.00;43.00;;;;;;5072319;28;20021;-74
2022/04/21 13:48:10;;;;;;;7.20;1.40;;;21.10;43.10;;;;;;5084983;28;20048;-75